createdAt,value
2022-10-23T00:01:14.772Z,11.3
2022-10-23T00:06:14.997Z,10.7
2022-10-23T00:11:15.163Z,10.9
2022-10-23T00:17:04.591Z,10.9
2022-10-23T00:22:14.855Z,10.7
2022-10-23T00:28:04.573Z,10.5
2022-10-23T00:33:14.796Z,10.6
2022-10-23T00:39:04.483Z,10.8
2022-10-23T00:44:14.781Z,10.8
2022-10-23T00:49:14.879Z,10.6
2022-10-23T00:55:04.552Z,10.5
2022-10-23T01:00:04.607Z,10.5
2022-10-23T01:05:14.787Z,10.3
2022-10-23T01:10:14.835Z,10.7
2022-10-23T01:16:04.536Z,10.7
2022-10-23T01:21:14.787Z,10.8
2022-10-23T01:26:14.801Z,10.7
2022-10-23T01:31:14.832Z,10.8
2022-10-23T01:37:04.754Z,10.9
2022-10-23T01:42:14.831Z,10.9
2022-10-23T01:48:04.691Z,10.8
2022-10-23T01:53:15.010Z,11.1
2022-10-23T01:59:04.695Z,11.3
2022-10-23T02:04:15.005Z,11.1
2022-10-23T02:09:15.017Z,11.2
2022-10-23T02:14:15.121Z,11.4
2022-10-23T02:20:04.738Z,11
2022-10-23T02:25:15.030Z,11.2
2022-10-23T02:30:15.126Z,11.4
2022-10-23T02:36:04.700Z,11.5
2022-10-23T02:41:04.722Z,11.6
2022-10-23T02:46:15.080Z,11.5
2022-10-23T02:52:04.584Z,11.8
2022-10-23T02:57:04.573Z,12.1
2022-10-23T03:02:04.886Z,12.2
2022-10-23T03:07:15.103Z,12.2
2022-10-23T03:13:04.694Z,12.4
2022-10-23T03:18:14.996Z,12.5
2022-10-23T03:24:05.064Z,12.7
2022-10-23T03:29:15.006Z,12.6
2022-10-23T03:34:15.139Z,12.7
2022-10-23T03:40:04.832Z,12.8
2022-10-23T03:45:15.020Z,12.6
2022-10-23T03:50:15.035Z,12.8
2022-10-23T03:56:04.725Z,12.9
2022-10-23T04:01:04.769Z,12.8
2022-10-23T04:06:15.102Z,12.8
2022-10-23T04:12:04.751Z,12.7
2022-10-23T04:17:04.768Z,12.7
2022-10-23T04:22:15.048Z,13
2022-10-23T04:28:04.489Z,12.8
2022-10-23T04:33:04.512Z,12.9
2022-10-23T04:38:04.657Z,12.9
2022-10-23T04:43:04.776Z,13
2022-10-23T04:48:15.036Z,12.9
2022-10-23T04:54:04.509Z,13
2022-10-23T05:04:04.737Z,13
2022-10-23T05:09:15.019Z,13.1
2022-10-23T05:15:05.414Z,13.4
2022-10-23T05:20:15.062Z,13.1
2022-10-23T05:25:15.014Z,13.2
2022-10-23T05:31:04.681Z,12.9
2022-10-23T05:36:15.026Z,13.2
2022-10-23T05:42:04.728Z,13.4
2022-10-23T05:47:04.760Z,13.3
2022-10-23T05:52:14.824Z,13.1
2022-10-23T05:57:14.868Z,13.3
2022-10-23T06:03:04.523Z,13
2022-10-23T06:08:04.751Z,13
2022-10-23T06:13:04.775Z,13
2022-10-23T06:18:15.003Z,13.3
2022-10-23T06:23:15.079Z,13.4
2022-10-23T06:28:17.062Z,13.4
2022-10-23T06:34:04.516Z,13.4
2022-10-23T06:39:04.631Z,13.4
2022-10-23T06:44:14.827Z,13.6
2022-10-23T06:50:04.656Z,13.7
2022-10-23T06:55:14.897Z,14
2022-10-23T07:00:14.907Z,14.1
2022-10-23T07:06:04.487Z,14.1
2022-10-23T07:11:04.517Z,14.1
2022-10-23T07:16:04.493Z,14.4
2022-10-23T07:21:04.560Z,14.4
2022-10-23T07:26:14.823Z,14.6
2022-10-23T07:31:14.789Z,14.5
2022-10-23T07:36:14.801Z,14.5
2022-10-23T07:41:14.816Z,14.7
2022-10-23T07:46:14.871Z,14.7
2022-10-23T07:51:14.951Z,15.1
2022-10-23T07:56:15.010Z,15
2022-10-23T08:01:15.084Z,15.7
2022-10-23T08:06:15.093Z,15.4
2022-10-23T08:11:15.219Z,15.4
2022-10-23T08:17:04.775Z,15.3
2022-10-23T08:22:04.758Z,15.6
2022-10-23T08:27:15.015Z,15.4
2022-10-23T08:32:15.077Z,15.9
2022-10-23T08:38:04.761Z,15.9
2022-10-23T08:43:15.032Z,16.3
2022-10-23T08:48:15.015Z,16.6
2022-10-23T08:54:04.598Z,17
2022-10-23T08:59:15.052Z,17.2
2022-10-23T09:05:04.569Z,17.2
2022-10-23T09:10:04.913Z,17.6
2022-10-23T09:15:15.030Z,17.5
2022-10-23T09:21:04.754Z,17.9
2022-10-23T09:26:15.053Z,18.3
2022-10-23T09:31:15.048Z,18.2
2022-10-23T09:37:04.734Z,18.1
2022-10-23T09:42:04.811Z,18.4
2022-10-23T09:47:15.041Z,18.5
2022-10-23T09:53:04.768Z,18.4
2022-10-23T09:58:15.074Z,18.4
2022-10-23T10:04:04.732Z,18.6
2022-10-23T10:09:04.809Z,18.9
2022-10-23T10:14:15.036Z,19.2
2022-10-23T10:19:15.039Z,19.3
2022-10-23T10:25:04.749Z,19.4
2022-10-23T10:30:14.850Z,19.4
2022-10-23T10:35:14.832Z,19.5
2022-10-23T10:40:15.188Z,19.1
2022-10-23T10:46:04.861Z,19.2
2022-10-23T10:51:04.788Z,19.4
2022-10-23T10:56:15.056Z,19.1
2022-10-23T11:01:15.229Z,19.1
2022-10-23T11:07:04.752Z,18.8
2022-10-23T11:12:15.036Z,18.7
2022-10-23T11:18:04.793Z,18.8
2022-10-23T11:23:15.047Z,18.9
2022-10-23T11:28:15.341Z,18.9
2022-10-23T11:34:04.961Z,18.6
2022-10-23T11:39:15.060Z,18.3
2022-10-23T11:45:04.841Z,18
2022-10-23T11:50:04.794Z,18.1
2022-10-23T11:55:04.793Z,18.3
2022-10-23T12:00:15.034Z,18.8
2022-10-23T12:05:15.062Z,18.7
2022-10-23T12:10:15.052Z,19
2022-10-23T12:15:15.051Z,19.1
2022-10-23T12:20:15.051Z,19
2022-10-23T12:26:04.798Z,19.1
2022-10-23T12:31:04.835Z,18.7
2022-10-23T12:36:15.009Z,19.1
2022-10-23T12:42:05.068Z,18.9
2022-10-23T12:47:14.817Z,18.9
2022-10-23T12:52:14.826Z,18.9
2022-10-23T12:57:14.916Z,18.8
2022-10-23T13:03:14.873Z,18.9
2022-10-23T13:09:04.792Z,18.9
2022-10-23T13:14:14.891Z,19.1
2022-10-23T13:20:04.559Z,19.2
2022-10-23T13:25:04.584Z,19.2
2022-10-23T13:30:14.894Z,19.3
2022-10-23T13:35:21.710Z,19.3
2022-10-23T13:41:04.575Z,19
2022-10-23T13:46:04.731Z,19
2022-10-23T13:51:04.734Z,19.2
2022-10-23T13:56:04.775Z,19.2
2022-10-23T14:01:24.468Z,19
2022-10-23T14:07:04.794Z,18.9
2022-10-23T14:12:15.058Z,18.8
2022-10-23T14:18:08.232Z,18.8
2022-10-23T14:23:04.793Z,18.8
2022-10-23T14:28:15.077Z,18.8
2022-10-23T14:33:15.158Z,18.7
2022-10-23T14:39:05.010Z,18.7
2022-10-23T14:44:14.903Z,18.6
2022-10-23T14:50:04.982Z,18.7
2022-10-23T14:55:14.864Z,18.5
2022-10-23T15:00:14.910Z,18.5
2022-10-23T15:06:04.838Z,18.4
2022-10-23T15:11:14.888Z,18.3
2022-10-23T15:16:15.122Z,18.3
2022-10-23T15:22:04.837Z,18.1
2022-10-23T15:27:04.892Z,18.2
2022-10-23T15:32:15.089Z,18.1
2022-10-23T15:37:15.115Z,18.1
2022-10-23T15:43:04.775Z,17.9
2022-10-23T15:48:04.808Z,17.8
2022-10-23T15:53:04.855Z,17.9
2022-10-23T15:58:04.846Z,17.7
2022-10-23T16:03:15.093Z,17.8
2022-10-23T16:09:04.805Z,17.8
2022-10-23T16:14:15.076Z,17.9
2022-10-23T16:19:15.155Z,17.5
2022-10-23T16:25:04.714Z,17.6
2022-10-23T16:30:04.801Z,17.5
2022-10-23T16:35:05.127Z,17.5
2022-10-23T16:40:04.816Z,17.2
2022-10-23T16:45:14.918Z,17.1
2022-10-23T16:50:15.116Z,16.8
2022-10-23T16:55:15.822Z,16.9
2022-10-23T17:01:04.854Z,16.9
2022-10-23T17:06:15.134Z,16.6
2022-10-23T17:12:04.832Z,16.8
2022-10-23T17:17:14.945Z,16.1
2022-10-23T17:22:15.098Z,16
2022-10-23T17:28:04.826Z,16.2
2022-10-23T17:33:15.124Z,16
2022-10-23T17:38:15.125Z,15.9
2022-10-23T17:43:15.137Z,15.8
2022-10-23T17:49:04.638Z,15.7
2022-10-23T17:54:04.637Z,15.8
2022-10-23T17:59:04.679Z,15.5
2022-10-23T18:04:04.894Z,15.6
2022-10-23T18:09:15.145Z,15.7
2022-10-23T18:15:04.893Z,15.6
2022-10-23T18:20:15.127Z,15.6
2022-10-23T18:26:04.940Z,15.8
2022-10-23T18:31:15.139Z,15.7
2022-10-23T18:37:04.913Z,15.8
2022-10-23T18:42:15.156Z,15.7
2022-10-23T18:48:05.231Z,15.6
2022-10-23T18:53:15.174Z,15.5
2022-10-23T18:59:04.806Z,15.5
2022-10-23T19:04:14.884Z,15.2
2022-10-23T19:09:14.932Z,15.1
2022-10-23T19:14:15.006Z,14.9
2022-10-23T19:20:04.612Z,15
2022-10-23T19:25:14.942Z,15.1
2022-10-23T19:31:04.708Z,15.3
2022-10-23T19:36:16.690Z,15.4
2022-10-23T19:42:04.659Z,15.4
2022-10-23T19:47:14.980Z,15.1
2022-10-23T19:53:04.684Z,15.3
2022-10-23T19:58:04.932Z,15.1
2022-10-23T20:03:14.949Z,15
2022-10-23T20:08:14.927Z,15.1
2022-10-23T20:13:19.924Z,15.1
2022-10-23T20:18:15.112Z,15.2
2022-10-23T20:23:15.161Z,14.9
2022-10-23T20:29:04.852Z,15.1
2022-10-23T20:34:15.147Z,15
2022-10-23T20:40:04.653Z,14.7
2022-10-23T20:45:04.847Z,14.9
2022-10-23T20:50:14.947Z,14.7
2022-10-23T20:55:15.191Z,15
2022-10-23T21:01:04.996Z,15.1
2022-10-23T21:06:15.136Z,15.1
2022-10-23T21:11:15.175Z,15.2
2022-10-23T21:17:04.877Z,15.6
2022-10-23T21:22:04.881Z,15.7
2022-10-23T21:27:05.086Z,16.1
2022-10-23T21:32:15.136Z,16
2022-10-23T21:38:04.863Z,15.8
2022-10-23T21:43:06.353Z,15.9
2022-10-23T21:48:15.141Z,15.8
2022-10-23T21:54:04.907Z,16.2
2022-10-23T21:59:15.153Z,15.7
2022-10-23T22:04:15.121Z,15.7
2022-10-23T22:09:15.121Z,15.7
2022-10-23T22:15:04.649Z,15.4
2022-10-23T22:20:04.738Z,15.2
2022-10-23T22:25:04.787Z,15.3
2022-10-23T22:30:15.227Z,15.2
2022-10-23T22:36:04.817Z,14.9
2022-10-23T22:41:04.863Z,14.7
2022-10-23T22:46:15.187Z,14.7
2022-10-23T22:52:04.687Z,14.9
2022-10-23T22:57:04.874Z,15
2022-10-23T23:02:04.907Z,15.1
2022-10-23T23:07:15.117Z,15
2022-10-23T23:13:04.655Z,15
2022-10-23T23:18:04.860Z,15.1
2022-10-23T23:23:04.870Z,14.9
2022-10-23T23:28:04.858Z,15.1
2022-10-23T23:33:04.893Z,14.8
2022-10-23T23:38:15.175Z,14.9
2022-10-23T23:43:15.183Z,14.9
2022-10-23T23:49:04.922Z,14.8
2022-10-23T23:54:14.974Z,14.9
2022-10-23T23:59:15.003Z,14.6
